Time;durP1;ratioP1;P1;durP2;ratioP2;P2;SDS_P1;SDS_P2;PMS_P1;PMS_P2;Temp;Humidity;BMP_temperature;BMP_pressure;BME280_temperature;BME280_humidity;BME280_pressure;Samples;Min_cycle;Max_cycle;Signal;HPM_P1;HPM_P2
2022/08/19 00:01:32;;;;;;;13.25;10.88;;;;;;;;;;5048279;28;20490;-59
2022/08/19 00:03:59;;;;;;;13.25;10.70;;;;;;;;;;5048189;28;20055;-60
2022/08/19 00:06:26;;;;;;;12.65;10.50;;;;;;;;;;5050507;28;20180;-60
2022/08/19 00:08:52;;;;;;;14.30;11.02;;;;;;;;;;5051681;28;20124;-59
2022/08/19 00:11:18;;;;;;;15.13;10.80;;;;;;;;;;5048208;28;20167;-60
2022/08/19 00:13:48;;;;;;;13.85;11.00;;;;;;;;;;5048750;28;20041;-59
2022/08/19 00:16:14;;;;;;;13.02;10.50;;;;;;;;;;5049325;28;20087;-60
2022/08/19 00:18:40;;;;;;;15.60;11.30;;;;;;;;;;5048941;28;20027;-60
2022/08/19 00:21:08;;;;;;;14.38;11.25;;;;;;;;;;5045365;28;20087;-59
2022/08/19 00:23:35;;;;;;;13.52;10.90;;;;;;;;;;5050438;28;20070;-59
2022/08/19 00:26:02;;;;;;;13.88;11.20;;;;;;;;;;5048024;28;20064;-59
2022/08/19 00:28:28;;;;;;;12.07;10.48;;;;;;;;;;5047842;28;20100;-60
2022/08/19 00:30:54;;;;;;;13.65;10.98;;;;;;;;;;5048187;28;20163;-59
2022/08/19 00:33:20;;;;;;;14.02;10.80;;;;;;;;;;5049888;28;20025;-59
2022/08/19 00:35:46;;;;;;;12.77;10.15;;;;;;;;;;5045890;28;20447;-59
2022/08/19 00:38:12;;;;;;;11.65;10.13;;;;;;;;;;5051318;28;20028;-59
2022/08/19 00:40:38;;;;;;;14.38;10.25;;;;;;;;;;5049134;28;20512;-59
2022/08/19 00:43:08;;;;;;;18.77;12.43;;;;;;;;;;5047020;28;20106;-60
2022/08/19 00:45:35;;;;;;;13.48;10.60;;;;;;;;;;5050007;28;20025;-60
2022/08/19 00:48:04;;;;;;;13.98;11.02;;;;;;;;;;5048152;28;20021;-60
2022/08/19 00:50:30;;;;;;;13.18;10.70;;;;;;;;;;5049328;28;20071;-59
2022/08/19 00:52:56;;;;;;;13.65;10.88;;;;;;;;;;5042003;28;20075;-59
2022/08/19 00:55:24;;;;;;;13.07;10.70;;;;;;;;;;5049817;28;20435;-59
2022/08/19 00:57:55;;;;;;;15.75;12.05;;;;;;;;;;5049616;28;20540;-60
2022/08/19 01:00:22;;;;;;;19.30;11.90;;;;;;;;;;5049739;28;20032;-60
2022/08/19 01:02:48;;;;;;;15.15;11.57;;;;;;;;;;5049491;28;20051;-60
2022/08/19 01:05:19;;;;;;;13.75;11.57;;;;;;;;;;5047589;28;20017;-59
2022/08/19 01:07:45;;;;;;;14.95;11.32;;;;;;;;;;5048830;28;20045;-60
2022/08/19 01:10:14;;;;;;;14.07;11.57;;;;;;;;;;5040150;28;20040;-59
2022/08/19 01:12:41;;;;;;;13.85;11.48;;;;;;;;;;5048298;28;20171;-60
2022/08/19 01:15:08;;;;;;;13.32;10.57;;;;;;;;;;5046515;28;20138;-60
2022/08/19 01:17:36;;;;;;;17.75;11.48;;;;;;;;;;5049694;28;20033;-60
2022/08/19 01:20:03;;;;;;;12.95;11.43;;;;;;;;;;5048158;28;20032;-59
2022/08/19 01:22:36;;;;;;;16.10;11.32;;;;;;;;;;5046372;28;20032;-59
2022/08/19 01:25:02;;;;;;;16.42;11.68;;;;;;;;;;5044742;28;20025;-59
2022/08/19 01:27:37;;;;;;;14.52;11.65;;;;;;;;;;5050168;28;20033;-60
2022/08/19 01:30:03;;;;;;;16.52;10.88;;;;;;;;;;5048412;28;20467;-59
2022/08/19 01:32:30;;;;;;;16.73;12.05;;;;;;;;;;5049870;28;20037;-59
2022/08/19 01:34:56;;;;;;;13.38;10.20;;;;;;;;;;5048696;28;20044;-60
2022/08/19 01:37:22;;;;;;;13.63;11.48;;;;;;;;;;5044163;28;20480;-59
2022/08/19 01:39:48;;;;;;;14.63;11.88;;;;;;;;;;5047095;28;20115;-60
2022/08/19 01:42:14;;;;;;;13.75;11.18;;;;;;;;;;5049123;28;20430;-60
2022/08/19 01:44:40;;;;;;;12.55;10.70;;;;;;;;;;5050384;28;20040;-60
2022/08/19 01:47:08;;;;;;;17.45;11.65;;;;;;;;;;5045118;28;20017;-61
2022/08/19 01:49:34;;;;;;;15.95;11.25;;;;;;;;;;5049135;28;20363;-59
2022/08/19 01:52:01;;;;;;;14.98;12.43;;;;;;;;;;5047607;28;20033;-59
2022/08/19 01:54:27;;;;;;;16.08;11.70;;;;;;;;;;5048164;28;20036;-60
2022/08/19 01:56:56;;;;;;;14.60;11.63;;;;;;;;;;5049023;28;20025;-60
2022/08/19 01:59:23;;;;;;;13.10;10.93;;;;;;;;;;5049966;28;20087;-59
2022/08/19 02:01:49;;;;;;;17.20;11.70;;;;;;;;;;5047353;28;20031;-60
2022/08/19 02:04:15;;;;;;;16.73;13.07;;;;;;;;;;5052089;28;20033;-59
2022/08/19 02:06:41;;;;;;;14.30;11.98;;;;;;;;;;5052999;28;20030;-60
2022/08/19 02:09:09;;;;;;;17.30;12.70;;;;;;;;;;5053047;28;20033;-60
2022/08/19 02:11:36;;;;;;;19.35;13.02;;;;;;;;;;5052599;28;20031;-59
2022/08/19 02:14:03;;;;;;;18.98;13.20;;;;;;;;;;5052302;28;20130;-59
2022/08/19 02:16:30;;;;;;;16.35;12.15;;;;;;;;;;5052071;28;20025;-60
2022/08/19 02:18:56;;;;;;;21.52;13.88;;;;;;;;;;5052087;28;20124;-60
2022/08/19 02:21:23;;;;;;;14.65;12.48;;;;;;;;;;5052690;28;20036;-61
2022/08/19 02:23:49;;;;;;;17.35;13.70;;;;;;;;;;5052678;28;20049;-60
2022/08/19 02:26:16;;;;;;;16.48;12.65;;;;;;;;;;5049687;28;20033;-61
2022/08/19 02:28:42;;;;;;;20.45;14.48;;;;;;;;;;5052918;28;20456;-61
2022/08/19 02:31:10;;;;;;;19.38;14.15;;;;;;;;;;5049989;28;20120;-61
2022/08/19 02:33:36;;;;;;;24.88;14.52;;;;;;;;;;5051948;28;20472;-61
2022/08/19 02:36:04;;;;;;;18.95;13.75;;;;;;;;;;5048884;28;20043;-60
2022/08/19 02:38:30;;;;;;;21.35;14.60;;;;;;;;;;5050624;28;20033;-60
2022/08/19 02:40:58;;;;;;;19.33;14.88;;;;;;;;;;5051957;28;20044;-59
2022/08/19 02:43:25;;;;;;;18.83;14.90;;;;;;;;;;5052119;28;20021;-59
2022/08/19 02:45:51;;;;;;;17.85;14.95;;;;;;;;;;5050048;28;20125;-60
2022/08/19 02:48:18;;;;;;;18.85;14.88;;;;;;;;;;5052176;28;20104;-60
2022/08/19 02:50:44;;;;;;;20.73;15.13;;;;;;;;;;5052208;28;20033;-60
2022/08/19 02:53:11;;;;;;;22.27;15.10;;;;;;;;;;5048348;28;20043;-60
2022/08/19 02:55:42;;;;;;;17.52;12.90;;;;;;;;;;5042025;28;20029;-59
2022/08/19 02:58:08;;;;;;;20.83;13.55;;;;;;;;;;5052030;28;20032;-59
2022/08/19 03:00:34;;;;;;;20.60;13.98;;;;;;;;;;5045813;28;20032;-59
2022/08/19 03:03:00;;;;;;;20.02;13.70;;;;;;;;;;5045531;28;20029;-61
2022/08/19 03:05:27;;;;;;;16.35;13.70;;;;;;;;;;5051633;28;20021;-60
2022/08/19 03:07:53;;;;;;;18.60;13.93;;;;;;;;;;5051817;28;20064;-59
2022/08/19 03:10:20;;;;;;;18.42;12.80;;;;;;;;;;5051602;28;20108;-59
2022/08/19 03:12:46;;;;;;;22.17;13.18;;;;;;;;;;5052256;28;20044;-59
2022/08/19 03:15:12;;;;;;;18.40;14.13;;;;;;;;;;5052652;28;20472;-59
2022/08/19 03:17:38;;;;;;;19.08;14.70;;;;;;;;;;5051667;28;20040;-60
2022/08/19 03:20:05;;;;;;;17.85;13.85;;;;;;;;;;5049028;28;20029;-59
2022/08/19 03:22:31;;;;;;;16.73;13.32;;;;;;;;;;5051903;28;20456;-60
2022/08/19 03:24:57;;;;;;;17.25;13.52;;;;;;;;;;5052426;28;20033;-59
2022/08/19 03:27:23;;;;;;;17.85;13.90;;;;;;;;;;5050819;28;20025;-59
2022/08/19 03:29:49;;;;;;;16.80;13.55;;;;;;;;;;5050744;28;20116;-59
2022/08/19 03:32:15;;;;;;;14.60;12.50;;;;;;;;;;5051477;28;20037;-59
2022/08/19 03:34:41;;;;;;;18.23;12.75;;;;;;;;;;5050382;28;20078;-59
2022/08/19 03:37:09;;;;;;;15.50;12.70;;;;;;;;;;5049166;28;20029;-60
2022/08/19 03:39:36;;;;;;;15.57;13.05;;;;;;;;;;5047151;28;20033;-59
2022/08/19 03:42:02;;;;;;;17.70;12.98;;;;;;;;;;5050189;28;20024;-60
2022/08/19 03:44:29;;;;;;;15.32;12.10;;;;;;;;;;5050200;28;20120;-60
2022/08/19 03:46:56;;;;;;;15.85;13.10;;;;;;;;;;5051369;28;20033;-60
2022/08/19 03:49:23;;;;;;;16.10;12.57;;;;;;;;;;5051110;28;20112;-60
2022/08/19 03:51:50;;;;;;;20.00;13.25;;;;;;;;;;5050562;28;20032;-60
2022/08/19 03:54:17;;;;;;;16.10;12.40;;;;;;;;;;5049998;28;20028;-60
2022/08/19 03:56:44;;;;;;;16.27;12.98;;;;;;;;;;5049989;28;20120;-60
2022/08/19 03:59:13;;;;;;;17.95;13.55;;;;;;;;;;5048961;28;20032;-60
2022/08/19 04:01:39;;;;;;;17.33;12.73;;;;;;;;;;5049343;28;20024;-59
2022/08/19 04:04:05;;;;;;;16.38;13.25;;;;;;;;;;5051478;28;20027;-60
2022/08/19 04:06:35;;;;;;;15.98;13.10;;;;;;;;;;5050770;28;20025;-60
2022/08/19 04:09:02;;;;;;;14.07;12.43;;;;;;;;;;5048576;28;20049;-59
2022/08/19 04:11:29;;;;;;;15.80;12.43;;;;;;;;;;5050371;28;20039;-60
2022/08/19 04:13:56;;;;;;;15.13;13.35;;;;;;;;;;5049939;28;20029;-60
2022/08/19 04:16:23;;;;;;;16.23;12.68;;;;;;;;;;5045785;28;20590;-59
2022/08/19 04:18:50;;;;;;;15.88;12.77;;;;;;;;;;5051121;28;20040;-59
2022/08/19 04:21:17;;;;;;;15.68;12.27;;;;;;;;;;5046675;28;20039;-59
2022/08/19 04:23:43;;;;;;;18.55;13.25;;;;;;;;;;5047593;28;20033;-59
2022/08/19 04:26:13;;;;;;;16.27;12.20;;;;;;;;;;5048175;28;20075;-59
2022/08/19 04:28:39;;;;;;;14.88;11.73;;;;;;;;;;5051229;28;20017;-60
2022/08/19 04:31:05;;;;;;;14.90;12.90;;;;;;;;;;5050867;28;20052;-59
2022/08/19 04:33:31;;;;;;;13.52;11.18;;;;;;;;;;5051848;28;20400;-59
2022/08/19 04:35:58;;;;;;;15.43;12.15;;;;;;;;;;5050787;28;20075;-59
2022/08/19 04:38:24;;;;;;;14.18;12.00;;;;;;;;;;5049006;28;20380;-59
2022/08/19 04:43:37;;;;;;;16.23;11.27;;;;;;;;;;5049082;28;20487;-59
2022/08/19 04:46:08;;;;;;;13.77;11.52;;;;;;;;;;5048489;28;20037;-59
2022/08/19 04:48:35;;;;;;;14.43;11.52;;;;;;;;;;5051556;28;20020;-59
2022/08/19 04:51:02;;;;;;;14.10;11.52;;;;;;;;;;5048753;28;20035;-59
2022/08/19 04:53:29;;;;;;;15.45;12.38;;;;;;;;;;5044197;28;20024;-60
2022/08/19 04:55:56;;;;;;;14.27;11.65;;;;;;;;;;5046476;28;20033;-60
2022/08/19 04:58:22;;;;;;;16.67;11.65;;;;;;;;;;5050885;28;20025;-60
2022/08/19 05:00:48;;;;;;;15.35;11.52;;;;;;;;;;5046745;28;20483;-60
2022/08/19 05:03:16;;;;;;;16.23;11.65;;;;;;;;;;5050943;28;20028;-60
2022/08/19 05:05:43;;;;;;;13.52;11.25;;;;;;;;;;5049981;28;20032;-59
2022/08/19 05:08:09;;;;;;;15.15;11.57;;;;;;;;;;5049031;28;20049;-59
2022/08/19 05:10:39;;;;;;;15.32;11.82;;;;;;;;;;5044266;28;20056;-59
2022/08/19 05:13:05;;;;;;;14.50;12.15;;;;;;;;;;5049996;28;20040;-60
2022/08/19 05:15:31;;;;;;;14.90;11.82;;;;;;;;;;5048406;28;20068;-59
2022/08/19 05:23:34;;;;;;;15.90;11.52;;;;;;;;;;5027818;28;20599;-60
2022/08/19 05:26:00;;;;;;;15.35;12.32;;;;;;;;;;5044405;28;20064;-60
2022/08/19 05:28:27;;;;;;;18.08;11.48;;;;;;;;;;5050036;28;20025;-59
2022/08/19 05:30:55;;;;;;;20.60;12.63;;;;;;;;;;5047761;28;20036;-59
2022/08/19 05:33:21;;;;;;;17.35;12.70;;;;;;;;;;5050505;28;20078;-59
2022/08/19 05:35:48;;;;;;;20.52;12.77;;;;;;;;;;5048083;28;20039;-60
2022/08/19 05:38:14;;;;;;;16.30;12.25;;;;;;;;;;5049581;28;20079;-60
2022/08/19 05:40:40;;;;;;;15.43;12.25;;;;;;;;;;5053405;28;20039;-59
2022/08/19 05:43:07;;;;;;;15.77;12.32;;;;;;;;;;5051271;28;21031;-59
2022/08/19 05:45:38;;;;;;;16.67;12.30;;;;;;;;;;5049153;28;20023;-59
2022/08/19 05:48:04;;;;;;;14.43;11.77;;;;;;;;;;5053923;28;20040;-59
2022/08/19 05:50:30;;;;;;;16.13;11.20;;;;;;;;;;5048591;28;20552;-59
2022/08/19 05:52:56;;;;;;;15.88;12.15;;;;;;;;;;5048693;28;20126;-59
2022/08/19 05:55:22;;;;;;;13.65;10.68;;;;;;;;;;5050023;28;20033;-59
2022/08/19 05:57:48;;;;;;;14.38;11.45;;;;;;;;;;5047096;28;20031;-60
2022/08/19 06:00:14;;;;;;;16.02;11.98;;;;;;;;;;5046332;28;20049;-59
2022/08/19 06:02:41;;;;;;;13.48;10.93;;;;;;;;;;5048739;28;20032;-60
2022/08/19 06:05:09;;;;;;;13.77;10.15;;;;;;;;;;5050463;28;20039;-59
2022/08/19 06:07:38;;;;;;;13.23;11.40;;;;;;;;;;5043025;28;20713;-59
2022/08/19 06:10:05;;;;;;;15.45;11.30;;;;;;;;;;5052738;28;20124;-59
2022/08/19 06:12:33;;;;;;;14.25;12.13;;;;;;;;;;5050431;28;20143;-60
2022/08/19 06:15:00;;;;;;;16.63;11.30;;;;;;;;;;5052509;28;20040;-59
2022/08/19 06:17:26;;;;;;;14.93;11.15;;;;;;;;;;5050253;28;20080;-59
2022/08/19 06:19:52;;;;;;;14.65;11.52;;;;;;;;;;5052863;28;20039;-59
2022/08/19 06:22:18;;;;;;;14.10;10.65;;;;;;;;;;5049717;28;20025;-59
2022/08/19 06:24:44;;;;;;;14.20;10.88;;;;;;;;;;5044282;28;20071;-60
2022/08/19 06:27:10;;;;;;;13.40;10.55;;;;;;;;;;5045214;28;20472;-60
2022/08/19 06:29:36;;;;;;;17.92;11.25;;;;;;;;;;5051479;28;20638;-60
2022/08/19 06:32:03;;;;;;;15.93;11.02;;;;;;;;;;5053043;28;20044;-59
2022/08/19 06:34:30;;;;;;;15.77;10.52;;;;;;;;;;5048578;28;20026;-59
2022/08/19 06:37:00;;;;;;;12.30;11.00;;;;;;;;;;5048427;28;20043;-59
2022/08/19 06:39:28;;;;;;;12.85;10.68;;;;;;;;;;5050629;28;20028;-59
2022/08/19 06:41:56;;;;;;;11.57;10.02;;;;;;;;;;5036283;28;20218;-60
2022/08/19 06:44:23;;;;;;;13.43;10.40;;;;;;;;;;5033674;28;20025;-60
2022/08/19 06:46:49;;;;;;;12.45;10.43;;;;;;;;;;5035247;28;20048;-60
2022/08/19 06:49:15;;;;;;;12.30;11.00;;;;;;;;;;5040779;28;20033;-59
2022/08/19 06:51:43;;;;;;;12.30;10.77;;;;;;;;;;5050245;28;20017;-59
2022/08/19 06:54:09;;;;;;;16.90;10.60;;;;;;;;;;5048973;28;20099;-59
2022/08/19 06:56:35;;;;;;;13.15;10.90;;;;;;;;;;5049965;28;20029;-60
2022/08/19 06:59:03;;;;;;;13.98;10.77;;;;;;;;;;5051095;28;20025;-59
2022/08/19 07:01:29;;;;;;;14.05;12.10;;;;;;;;;;5044514;28;20044;-59
2022/08/19 07:03:56;;;;;;;11.50;9.73;;;;;;;;;;5051922;28;20017;-59
2022/08/19 07:06:22;;;;;;;13.23;10.57;;;;;;;;;;5052294;28;20036;-59
2022/08/19 07:08:48;;;;;;;16.33;11.00;;;;;;;;;;5050984;28;20044;-59
2022/08/19 07:11:17;;;;;;;12.57;10.73;;;;;;;;;;5047333;28;20773;-59
2022/08/19 07:13:43;;;;;;;15.48;11.25;;;;;;;;;;5042915;28;20032;-60
2022/08/19 07:16:11;;;;;;;14.63;10.32;;;;;;;;;;5038283;28;20024;-59
2022/08/19 07:18:37;;;;;;;14.65;11.68;;;;;;;;;;5032258;28;20627;-60
2022/08/19 07:21:14;;;;;;;14.98;11.02;;;;;;;;;;5033567;28;20134;-60
2022/08/19 07:23:40;;;;;;;13.25;10.20;;;;;;;;;;5049855;28;20503;-59
2022/08/19 07:26:11;;;;;;;13.80;10.95;;;;;;;;;;5048457;28;20056;-60
2022/08/19 07:28:42;;;;;;;13.48;10.90;;;;;;;;;;5050592;28;20075;-59
2022/08/19 07:31:10;;;;;;;13.38;10.60;;;;;;;;;;5043607;28;21864;-59
2022/08/19 07:33:36;;;;;;;13.07;11.10;;;;;;;;;;5049922;28;20035;-60
2022/08/19 07:36:04;;;;;;;14.48;11.70;;;;;;;;;;5046660;28;20025;-59
2022/08/19 07:38:29;;;;;;;13.30;11.18;;;;;;;;;;5051391;28;20484;-59
2022/08/19 07:40:55;;;;;;;14.15;12.07;;;;;;;;;;5051274;28;20078;-59
2022/08/19 07:43:25;;;;;;;15.05;12.10;;;;;;;;;;5048025;28;20036;-59
2022/08/19 07:45:51;;;;;;;15.32;12.43;;;;;;;;;;5050261;28;20040;-59
2022/08/19 07:48:17;;;;;;;15.77;11.43;;;;;;;;;;5049734;28;20369;-59
2022/08/19 07:50:44;;;;;;;13.15;11.23;;;;;;;;;;5051087;28;20404;-59
2022/08/19 07:53:11;;;;;;;18.38;12.50;;;;;;;;;;5042446;28;20035;-59
2022/08/19 07:55:37;;;;;;;14.40;11.77;;;;;;;;;;5039468;28;20041;-59
2022/08/19 07:58:04;;;;;;;13.50;11.38;;;;;;;;;;5048764;28;20499;-59
2022/08/19 08:00:30;;;;;;;13.70;11.60;;;;;;;;;;5050022;28;20486;-59
2022/08/19 08:02:56;;;;;;;15.75;11.52;;;;;;;;;;5046201;28;20564;-59
2022/08/19 08:10:52;;;;;;;13.40;12.00;;;;;;;;;;5045019;28;20039;-58
2022/08/19 08:13:18;;;;;;;17.85;11.77;;;;;;;;;;5047260;28;20037;-59
2022/08/19 08:15:44;;;;;;;16.63;12.65;;;;;;;;;;5046868;28;20057;-59
2022/08/19 08:18:11;;;;;;;15.27;12.25;;;;;;;;;;5042695;28;20114;-59
2022/08/19 08:20:37;;;;;;;15.35;12.38;;;;;;;;;;5048105;28;20112;-58
2022/08/19 08:23:22;;;;;;;13.45;11.85;;;;;;;;;;5042683;28;20075;-58
2022/08/19 08:25:48;;;;;;;16.98;12.80;;;;;;;;;;5051875;28;20025;-59
2022/08/19 08:28:14;;;;;;;14.07;11.95;;;;;;;;;;5050682;28;20082;-58
2022/08/19 08:30:43;;;;;;;14.82;12.35;;;;;;;;;;5049691;28;20040;-59
2022/08/19 08:33:09;;;;;;;14.45;11.93;;;;;;;;;;5043887;28;20028;-59
2022/08/19 08:35:35;;;;;;;15.43;11.82;;;;;;;;;;5047930;28;20036;-59
2022/08/19 08:38:03;;;;;;;15.02;12.38;;;;;;;;;;5047192;28;20033;-59
2022/08/19 08:40:49;;;;;;;15.85;12.70;;;;;;;;;;5046146;28;20102;-60
2022/08/19 08:43:26;;;;;;;17.63;11.80;;;;;;;;;;5049761;28;20037;-58
2022/08/19 08:45:59;;;;;;;15.07;11.48;;;;;;;;;;5051662;28;20037;-59
2022/08/19 08:48:31;;;;;;;13.75;11.55;;;;;;;;;;5049522;28;20057;-59
2022/08/19 08:50:58;;;;;;;13.95;11.30;;;;;;;;;;5041203;28;20075;-59
2022/08/19 08:53:24;;;;;;;12.23;10.90;;;;;;;;;;5045998;28;20136;-59
2022/08/19 08:55:50;;;;;;;16.10;12.13;;;;;;;;;;5046768;28;20120;-59
2022/08/19 08:58:41;;;;;;;12.82;10.15;;;;;;;;;;5050615;28;20563;-59
2022/08/19 09:01:09;;;;;;;18.35;10.88;;;;;;;;;;5039853;28;20032;-59
2022/08/19 09:03:37;;;;;;;18.48;11.23;;;;;;;;;;5039631;28;20075;-59
2022/08/19 09:06:05;;;;;;;15.95;11.45;;;;;;;;;;5044841;28;20120;-59
2022/08/19 09:08:37;;;;;;;12.50;11.07;;;;;;;;;;5048277;28;20489;-58
2022/08/19 09:11:06;;;;;;;13.52;11.23;;;;;;;;;;5050812;28;20025;-58
2022/08/19 09:13:42;;;;;;;12.48;10.70;;;;;;;;;;5057471;28;20094;-58
2022/08/19 09:16:13;;;;;;;12.60;10.80;;;;;;;;;;5050251;28;20710;-59
2022/08/19 09:18:40;;;;;;;12.63;11.18;;;;;;;;;;5050292;28;20533;-59
2022/08/19 09:21:08;;;;;;;12.50;9.60;;;;;;;;;;5055104;28;20036;-59
2022/08/19 09:23:34;;;;;;;11.00;9.82;;;;;;;;;;5053165;28;20033;-59
2022/08/19 09:26:00;;;;;;;10.82;9.32;;;;;;;;;;5050144;28;20033;-59
2022/08/19 09:28:27;;;;;;;11.55;9.18;;;;;;;;;;5057860;28;20066;-59
2022/08/19 09:30:53;;;;;;;12.75;10.65;;;;;;;;;;5057287;28;20460;-59
2022/08/19 09:33:19;;;;;;;12.80;8.98;;;;;;;;;;5056048;28;20032;-59
2022/08/19 09:35:46;;;;;;;11.35;9.07;;;;;;;;;;5050393;28;20033;-59
2022/08/19 09:38:12;;;;;;;11.23;8.95;;;;;;;;;;5052312;28;20098;-59
2022/08/19 09:40:38;;;;;;;11.10;9.75;;;;;;;;;;5057522;28;20029;-59
2022/08/19 09:43:04;;;;;;;11.70;9.77;;;;;;;;;;5041447;28;20580;-59
2022/08/19 09:45:31;;;;;;;12.18;9.77;;;;;;;;;;5055635;28;20431;-59
2022/08/19 09:47:57;;;;;;;13.07;9.88;;;;;;;;;;5053857;28;20017;-59
2022/08/19 09:50:23;;;;;;;13.68;10.05;;;;;;;;;;5051003;28;20025;-59
2022/08/19 09:52:49;;;;;;;13.75;10.48;;;;;;;;;;5053975;28;20052;-59
2022/08/19 09:55:16;;;;;;;13.77;10.32;;;;;;;;;;5054489;28;20071;-59
2022/08/19 09:57:42;;;;;;;11.70;9.85;;;;;;;;;;5052864;28;20025;-59
2022/08/19 10:00:09;;;;;;;15.07;10.23;;;;;;;;;;5045017;28;20502;-59
2022/08/19 10:02:35;;;;;;;10.13;8.90;;;;;;;;;;5057358;28;20025;-59
2022/08/19 10:07:46;;;;;;;11.77;10.18;;;;;;;;;;5050686;28;20535;-59
2022/08/19 10:10:12;;;;;;;14.13;9.90;;;;;;;;;;5045116;28;20064;-59
2022/08/19 10:12:39;;;;;;;13.80;9.93;;;;;;;;;;5052890;28;20025;-59
2022/08/19 10:15:05;;;;;;;11.48;9.63;;;;;;;;;;5046999;28;20048;-59
2022/08/19 10:17:34;;;;;;;13.20;10.45;;;;;;;;;;5045146;28;20079;-59
2022/08/19 10:20:02;;;;;;;13.90;10.38;;;;;;;;;;5041345;28;20056;-59
2022/08/19 10:22:28;;;;;;;12.48;10.52;;;;;;;;;;5047846;28;20070;-59
2022/08/19 10:24:54;;;;;;;14.40;10.32;;;;;;;;;;5038252;28;20026;-59
2022/08/19 10:27:20;;;;;;;13.80;9.52;;;;;;;;;;5044718;28;20033;-59
2022/08/19 10:29:47;;;;;;;12.65;10.18;;;;;;;;;;5036675;28;20051;-59
2022/08/19 10:32:13;;;;;;;14.00;10.00;;;;;;;;;;5037386;28;20037;-59
2022/08/19 10:34:40;;;;;;;13.77;11.27;;;;;;;;;;5043184;28;20036;-59
2022/08/19 10:37:06;;;;;;;13.38;10.80;;;;;;;;;;5047175;28;20086;-59
2022/08/19 10:39:33;;;;;;;13.93;10.38;;;;;;;;;;5040218;28;20025;-59
2022/08/19 10:41:59;;;;;;;13.73;10.07;;;;;;;;;;5038280;28;20041;-59
2022/08/19 10:44:28;;;;;;;11.15;9.85;;;;;;;;;;5047777;28;20474;-58
2022/08/19 10:46:54;;;;;;;13.70;10.68;;;;;;;;;;5043314;28;20029;-59
2022/08/19 10:49:20;;;;;;;14.13;10.38;;;;;;;;;;5038674;28;20033;-59
2022/08/19 10:57:17;;;;;;;12.98;10.55;;;;;;;;;;5049406;28;20044;-59
2022/08/19 10:59:44;;;;;;;15.50;9.98;;;;;;;;;;5050181;28;20385;-59
2022/08/19 11:02:12;;;;;;;11.18;9.05;;;;;;;;;;5049953;28;20520;-59
2022/08/19 11:04:39;;;;;;;12.20;9.68;;;;;;;;;;5053576;28;20484;-59
2022/08/19 11:07:06;;;;;;;11.63;8.90;;;;;;;;;;5047953;28;20029;-59
2022/08/19 11:09:37;;;;;;;9.88;8.57;;;;;;;;;;5050776;28;20049;-59
2022/08/19 11:12:03;;;;;;;11.77;9.35;;;;;;;;;;5050791;28;20021;-59
2022/08/19 11:14:30;;;;;;;14.48;9.43;;;;;;;;;;5051549;28;20061;-59
2022/08/19 11:16:57;;;;;;;9.43;8.45;;;;;;;;;;5053033;28;20496;-59
2022/08/19 11:19:23;;;;;;;10.77;8.73;;;;;;;;;;5050622;28;20384;-59
2022/08/19 11:21:50;;;;;;;10.95;8.25;;;;;;;;;;5051158;28;20096;-59
2022/08/19 11:24:17;;;;;;;9.50;7.93;;;;;;;;;;5049048;28;20032;-59
2022/08/19 11:26:44;;;;;;;9.63;7.78;;;;;;;;;;5052790;28;20159;-59
2022/08/19 11:29:12;;;;;;;11.02;8.02;;;;;;;;;;5051324;28;20490;-59
2022/08/19 11:31:39;;;;;;;10.82;8.50;;;;;;;;;;5047891;28;20083;-58
2022/08/19 11:34:06;;;;;;;10.23;7.40;;;;;;;;;;5051191;28;20371;-59
2022/08/19 11:36:33;;;;;;;9.20;7.68;;;;;;;;;;5045996;28;20029;-60
2022/08/19 11:39:00;;;;;;;11.32;8.50;;;;;;;;;;5047576;28;20079;-59
2022/08/19 11:41:26;;;;;;;10.75;7.88;;;;;;;;;;5052097;28;20464;-60
2022/08/19 11:43:53;;;;;;;9.63;7.20;;;;;;;;;;5052906;28;20154;-58
2022/08/19 11:46:20;;;;;;;10.40;7.18;;;;;;;;;;5052037;28;20066;-60
2022/08/19 11:48:46;;;;;;;8.55;6.53;;;;;;;;;;5052831;28;20107;-58
2022/08/19 11:51:13;;;;;;;8.73;6.75;;;;;;;;;;5052197;28;20029;-59
2022/08/19 11:53:40;;;;;;;7.60;6.78;;;;;;;;;;5052716;28;20428;-59
2022/08/19 11:56:06;;;;;;;10.32;6.82;;;;;;;;;;5050359;28;20099;-59
2022/08/19 11:58:32;;;;;;;7.85;6.40;;;;;;;;;;5052350;28;20074;-59
2022/08/19 12:00:59;;;;;;;9.45;7.05;;;;;;;;;;5051844;28;20032;-59
2022/08/19 12:03:25;;;;;;;7.60;6.35;;;;;;;;;;5042014;28;20021;-59
2022/08/19 12:05:51;;;;;;;8.77;7.18;;;;;;;;;;5052506;28;20183;-59
2022/08/19 12:08:17;;;;;;;8.05;6.70;;;;;;;;;;5052164;28;20033;-60
2022/08/19 12:10:45;;;;;;;9.50;6.43;;;;;;;;;;5051712;28;20041;-59
2022/08/19 12:13:13;;;;;;;7.15;6.45;;;;;;;;;;5052462;28;20071;-59
2022/08/19 12:15:40;;;;;;;7.63;6.35;;;;;;;;;;5052337;28;20063;-59
2022/08/19 12:18:07;;;;;;;9.52;6.68;;;;;;;;;;5052234;28;20035;-59
2022/08/19 12:20:36;;;;;;;9.32;6.53;;;;;;;;;;5050051;28;20032;-59
2022/08/19 12:23:02;;;;;;;7.20;6.47;;;;;;;;;;5051822;28;20469;-60
2022/08/19 12:25:28;;;;;;;7.63;6.32;;;;;;;;;;5052175;28;20035;-59
2022/08/19 12:27:54;;;;;;;7.85;6.18;;;;;;;;;;5051963;28;20025;-59
2022/08/19 12:30:20;;;;;;;8.27;5.88;;;;;;;;;;5051838;28;20476;-59
2022/08/19 12:32:46;;;;;;;7.32;6.18;;;;;;;;;;5051259;28;20464;-59
2022/08/19 12:35:12;;;;;;;7.07;5.93;;;;;;;;;;5051997;28;20025;-58
2022/08/19 12:37:44;;;;;;;9.23;6.68;;;;;;;;;;5049878;28;20032;-59
2022/08/19 12:40:11;;;;;;;10.77;6.25;;;;;;;;;;5051564;28;20029;-59
2022/08/19 12:42:40;;;;;;;9.18;5.97;;;;;;;;;;5051769;28;20017;-59
2022/08/19 12:45:07;;;;;;;6.95;6.18;;;;;;;;;;5051851;28;20033;-59
2022/08/19 12:47:33;;;;;;;8.48;6.00;;;;;;;;;;5051120;28;20029;-59
2022/08/19 12:49:59;;;;;;;8.23;5.93;;;;;;;;;;5048962;28;20086;-59
2022/08/19 12:52:26;;;;;;;7.03;6.32;;;;;;;;;;5051425;28;20035;-59
2022/08/19 12:54:54;;;;;;;6.65;5.60;;;;;;;;;;5051569;28;20021;-59
2022/08/19 12:57:20;;;;;;;6.13;5.53;;;;;;;;;;5044582;28;20033;-59
2022/08/19 12:59:46;;;;;;;7.53;5.93;;;;;;;;;;5051432;28;20086;-59
2022/08/19 13:02:12;;;;;;;9.73;6.15;;;;;;;;;;5045045;28;20029;-59
2022/08/19 13:04:40;;;;;;;11.40;8.07;;;;;;;;;;5051126;28;20025;-59
2022/08/19 13:07:07;;;;;;;10.27;8.05;;;;;;;;;;5044631;28;20082;-59
2022/08/19 13:09:33;;;;;;;11.98;10.13;;;;;;;;;;5051406;28;20041;-59
2022/08/19 13:12:03;;;;;;;17.23;12.45;;;;;;;;;;5048707;28;20033;-59
2022/08/19 13:14:30;;;;;;;15.80;12.55;;;;;;;;;;5037949;28;20392;-59
2022/08/19 13:16:57;;;;;;;16.27;13.43;;;;;;;;;;5050474;28;20151;-59
2022/08/19 13:19:24;;;;;;;15.48;11.35;;;;;;;;;;5048093;28;20036;-60
2022/08/19 13:21:50;;;;;;;15.30;12.68;;;;;;;;;;5046928;28;20037;-59
2022/08/19 13:24:17;;;;;;;16.30;12.85;;;;;;;;;;5043549;28;20083;-59
2022/08/19 13:26:43;;;;;;;17.88;12.02;;;;;;;;;;5047107;28;20036;-59
2022/08/19 13:34:39;;;;;;;16.52;11.68;;;;;;;;;;5041541;28;20495;-59
2022/08/19 13:37:05;;;;;;;15.95;10.77;;;;;;;;;;5041837;28;20037;-59
2022/08/19 13:39:32;;;;;;;12.10;10.65;;;;;;;;;;5049835;28;20032;-59
2022/08/19 13:41:59;;;;;;;16.15;11.25;;;;;;;;;;5049321;28;20024;-59
2022/08/19 13:44:26;;;;;;;13.38;10.40;;;;;;;;;;5049027;28;20037;-59
2022/08/19 13:46:53;;;;;;;12.45;10.25;;;;;;;;;;5051070;28;20045;-58
2022/08/19 13:49:20;;;;;;;10.60;8.93;;;;;;;;;;5040605;28;20108;-59
2022/08/19 13:51:46;;;;;;;12.20;9.10;;;;;;;;;;5044701;28;20116;-59
2022/08/19 13:54:12;;;;;;;12.77;8.68;;;;;;;;;;5046373;28;20075;-59
2022/08/19 13:56:43;;;;;;;13.55;8.65;;;;;;;;;;5050023;28;20021;-59
2022/08/19 13:59:09;;;;;;;9.60;8.60;;;;;;;;;;5051916;28;20048;-59
2022/08/19 14:01:35;;;;;;;10.45;7.90;;;;;;;;;;5052767;28;20029;-59
2022/08/19 14:04:01;;;;;;;11.20;7.82;;;;;;;;;;5054224;28;20029;-59
2022/08/19 14:06:27;;;;;;;8.95;7.13;;;;;;;;;;5054730;28;20166;-59
2022/08/19 14:08:53;;;;;;;9.27;7.82;;;;;;;;;;5053727;28;20143;-59
2022/08/19 14:11:22;;;;;;;8.15;7.35;;;;;;;;;;5054056;28;20159;-60
2022/08/19 14:13:48;;;;;;;8.75;6.80;;;;;;;;;;5052891;28;20029;-60
2022/08/19 14:16:15;;;;;;;8.85;6.85;;;;;;;;;;5053936;28;20036;-59
2022/08/19 14:18:41;;;;;;;8.93;7.18;;;;;;;;;;5054327;28;20391;-59
2022/08/19 14:21:07;;;;;;;8.38;6.72;;;;;;;;;;5045340;28;20039;-60
2022/08/19 14:23:35;;;;;;;13.07;9.90;;;;;;;;;;5054179;28;20167;-59
2022/08/19 14:26:09;;;;;;;10.55;8.70;;;;;;;;;;5051127;28;20025;-59
2022/08/19 14:28:36;;;;;;;14.95;10.93;;;;;;;;;;5051137;28;20061;-59
2022/08/19 14:31:02;;;;;;;12.32;10.93;;;;;;;;;;5047628;28;20384;-59
2022/08/19 14:33:27;;;;;;;12.35;10.90;;;;;;;;;;5052904;28;20040;-58
2022/08/19 14:35:53;;;;;;;12.30;9.95;;;;;;;;;;5047987;28;20689;-59
2022/08/19 14:38:20;;;;;;;14.73;10.70;;;;;;;;;;5053140;28;20377;-59
2022/08/19 14:40:46;;;;;;;15.65;11.48;;;;;;;;;;5051823;28;20086;-59
2022/08/19 14:43:12;;;;;;;13.02;10.98;;;;;;;;;;5046197;28;20021;-59
2022/08/19 14:45:38;;;;;;;15.50;11.10;;;;;;;;;;5052877;28;20373;-59
2022/08/19 14:48:05;;;;;;;11.75;9.73;;;;;;;;;;5048856;28;20036;-59